Jacksonville/Craig Field, Florida
Current Conditions -  °F | °C
As of 3:03 AM on Sunday 21 Dec 2014 (Local Time) from KCRG Reporting Station
Overcast Overcast  
Wind Chill: 59°   Ceiling: 400
Heat Index: 59°   Visibility: 7mi
Dew Point: 57°   Wind: 8mph
Humidity: 93%   Direction: 40°NE
Pressure: 30.11"   Gusts: NA
Location:  30.33°N, 81.52°W
Report Text: KCRG 210803Z AUTO 04007KT 7SM OVC004 15/14 A3011 RMK AO2 T01500139
Loading
Personal Weather Stations






























Interactive Weather Map New forecast layout! Learn more

10-Day Weather Forecast

Advertisements
Track Severe Weather on mobile